createdAt,value
2022-08-28T00:00:14.949Z,93893.53
2022-08-28T00:02:42.432Z,93900.88
2022-08-28T00:05:11.235Z,93890.91
2022-08-28T00:07:38.218Z,93896.69
2022-08-28T00:10:06.789Z,93891.44
2022-08-28T00:12:34.870Z,93888.00
2022-08-28T00:15:02.719Z,93900.34
2022-08-28T00:17:29.489Z,93893.28
2022-08-28T00:19:56.238Z,93897.19
2022-08-28T00:22:23.356Z,93890.88
2022-08-28T00:24:49.994Z,93887.25
2022-08-28T00:27:35.177Z,93887.97
2022-08-28T00:30:01.904Z,93885.13
2022-08-28T00:32:28.717Z,93889.31
2022-08-28T00:34:55.449Z,93890.88
2022-08-28T00:37:24.555Z,93884.88
2022-08-28T00:39:51.658Z,93876.22
2022-08-28T00:42:18.570Z,93889.03
2022-08-28T00:44:45.509Z,93889.81
2022-08-28T00:47:13.229Z,93890.38
2022-08-28T00:49:50.796Z,93889.84
2022-08-28T00:52:18.959Z,93890.59
2022-08-28T00:54:59.416Z,93888.00
2022-08-28T00:57:35.255Z,93892.47
2022-08-28T01:00:02.728Z,93895.59
2022-08-28T01:02:29.702Z,93901.38
2022-08-28T01:04:56.535Z,93895.09
2022-08-28T01:07:23.954Z,93898.78
2022-08-28T01:09:54.185Z,93890.88
2022-08-28T01:12:25.460Z,93892.47
2022-08-28T01:14:53.659Z,93881.97
2022-08-28T01:17:21.681Z,93885.66
2022-08-28T01:19:57.193Z,93879.63
2022-08-28T01:22:30.973Z,93889.34
2022-08-28T01:24:59.533Z,93885.66
2022-08-28T01:27:26.665Z,93883.31
2022-08-28T01:29:53.600Z,93879.63
2022-08-28T01:32:37.849Z,93879.91
2022-08-28T01:35:07.217Z,93885.94
2022-08-28T01:37:33.949Z,93885.41
2022-08-28T01:40:01.454Z,93877.28
2022-08-28T01:42:28.528Z,93874.91
2022-08-28T01:44:55.356Z,93868.88
2022-08-28T01:47:22.819Z,93879.38
2022-08-28T01:49:49.839Z,93878.31
2022-08-28T01:52:16.640Z,93883.81
2022-08-28T01:54:43.336Z,93885.16
2022-08-28T01:57:10.537Z,93884.88
2022-08-28T01:59:37.254Z,93885.94
2022-08-28T02:02:04.730Z,93888.28
2022-08-28T02:04:31.803Z,93887.25
2022-08-28T02:06:59.495Z,93881.72
2022-08-28T02:09:26.125Z,93877.00
2022-08-28T02:11:54.440Z,93880.41
2022-08-28T02:14:22.526Z,93880.41
2022-08-28T02:16:49.990Z,93880.66
2022-08-28T02:19:17.221Z,93875.16
2022-08-28T02:21:44.011Z,93878.59
2022-08-28T02:24:10.830Z,93867.31
2022-08-28T02:26:38.241Z,93870.97
2022-08-28T02:29:05.469Z,93872.78
2022-08-28T02:31:32.289Z,93865.22
2022-08-28T02:33:59.089Z,93870.44
2022-08-28T02:36:26.190Z,93865.72
2022-08-28T02:38:57.413Z,93869.41
2022-08-28T02:41:24.715Z,93865.22
2022-08-28T02:43:51.388Z,93868.34
2022-08-28T02:46:18.181Z,93863.34
2022-08-28T02:48:45.666Z,93865.22
2022-08-28T02:51:13.769Z,93852.06
2022-08-28T02:53:41.992Z,93859.97
2022-08-28T02:56:09.599Z,93853.66
2022-08-28T02:58:36.621Z,93854.19
2022-08-28T03:01:09.760Z,93855.25
2022-08-28T03:03:37.164Z,93855.22
2022-08-28T03:06:08.324Z,93853.63
2022-08-28T03:08:35.294Z,93854.44
2022-08-28T03:11:02.014Z,93846.28
2022-08-28T03:13:28.852Z,93846.84
2022-08-28T03:15:56.240Z,93838.44
2022-08-28T03:18:24.528Z,93844.75
2022-08-28T03:20:52.794Z,93841.06
2022-08-28T03:23:28.906Z,93846.84
2022-08-28T03:25:58.418Z,93852.34
2022-08-28T03:28:26.839Z,93851.03
2022-08-28T03:30:54.302Z,93859.44
2022-08-28T03:33:21.740Z,93851.06
2022-08-28T03:35:48.891Z,93856.00
2022-08-28T03:38:17.049Z,93870.47
2022-08-28T03:40:46.440Z,93869.41
2022-08-28T03:43:23.500Z,93877.28
2022-08-28T03:46:03.332Z,93874.09
2022-08-28T03:48:33.180Z,93879.91
2022-08-28T03:51:00.761Z,93879.38
2022-08-28T03:53:29.426Z,93880.16
2022-08-28T03:55:56.921Z,93886.19
2022-08-28T03:58:24.193Z,93881.47
2022-08-28T04:00:51.242Z,93881.47
2022-08-28T04:03:18.617Z,93881.47
2022-08-28T04:05:46.271Z,93883.56
2022-08-28T04:08:16.105Z,93886.72
2022-08-28T04:10:44.241Z,93888.78
2022-08-28T04:13:12.479Z,93889.84
2022-08-28T04:15:39.689Z,93892.22
2022-08-28T04:18:06.433Z,93890.63
2022-08-28T04:20:33.264Z,93890.38
2022-08-28T04:23:01.339Z,93894.31
2022-08-28T04:25:27.959Z,93899.81
2022-08-28T04:27:54.633Z,93899.56
2022-08-28T04:30:21.349Z,93899.31
2022-08-28T04:32:48.013Z,93903.22
2022-08-28T04:35:15.580Z,93902.72
2022-08-28T04:37:43.810Z,93904.78
2022-08-28T04:40:11.497Z,93901.13
2022-08-28T04:42:38.992Z,93903.75
2022-08-28T04:45:07.130Z,93904.28
2022-08-28T04:47:38.503Z,93906.66
2022-08-28T04:50:06.506Z,93905.06
2022-08-28T04:52:33.148Z,93904.81
2022-08-28T04:54:59.858Z,93907.19
2022-08-28T04:57:26.534Z,93901.41
2022-08-28T04:59:53.261Z,93900.88
2022-08-28T05:02:20.025Z,93900.63
2022-08-28T05:04:47.372Z,93899.03
2022-08-28T05:07:14.340Z,93905.59
2022-08-28T05:09:41.019Z,93908.47
2022-08-28T05:12:07.641Z,93909.78
2022-08-28T05:14:34.357Z,93910.34
2022-08-28T05:17:01.000Z,93903.28
2022-08-28T05:19:28.262Z,93906.41
2022-08-28T05:21:55.231Z,93907.47
2022-08-28T05:24:22.655Z,93911.66
2022-08-28T05:26:49.348Z,93910.09
2022-08-28T05:29:16.987Z,93908.78
2022-08-28T05:31:44.427Z,93911.66
2022-08-28T05:34:13.617Z,93913.22
2022-08-28T05:36:40.310Z,93912.44
2022-08-28T05:39:09.165Z,93912.44
2022-08-28T05:41:36.819Z,93920.31
2022-08-28T05:44:05.829Z,93915.34
2022-08-28T05:46:33.388Z,93910.34
2022-08-28T05:49:00.600Z,93911.41
2022-08-28T05:51:28.233Z,93911.91
2022-08-28T05:53:57.557Z,93908.00
2022-08-28T05:56:29.737Z,93914.28
2022-08-28T05:58:57.667Z,93907.19
2022-08-28T06:01:29.605Z,93909.28
2022-08-28T06:03:59.321Z,93914.53
2022-08-28T06:06:27.965Z,93908.50
2022-08-28T06:09:04.178Z,93916.91
2022-08-28T06:11:32.823Z,93916.63
2022-08-28T06:14:03.189Z,93916.38
2022-08-28T06:16:32.027Z,93917.69
2022-08-28T06:18:59.178Z,93929.50
2022-08-28T06:21:26.184Z,93920.56
2022-08-28T06:23:53.116Z,93924.50
2022-08-28T06:26:19.961Z,93926.88
2022-08-28T06:28:46.592Z,93921.34
2022-08-28T06:31:24.676Z,93922.94
2022-08-28T06:33:57.867Z,93913.44
2022-08-28T06:36:27.653Z,93921.84
2022-08-28T06:38:58.133Z,93922.38
2022-08-28T06:41:25.377Z,93929.13
2022-08-28T06:43:52.018Z,93931.72
2022-08-28T06:46:18.859Z,93928.28
2022-08-28T06:48:45.512Z,93932.47
2022-08-28T06:51:13.019Z,93922.69
2022-08-28T06:53:41.612Z,93940.81
2022-08-28T06:56:26.389Z,93937.47
2022-08-28T06:58:55.828Z,93942.13
2022-08-28T07:01:33.942Z,93948.97
2022-08-28T07:04:05.062Z,93946.81
2022-08-28T07:06:34.431Z,93945.97
2022-08-28T07:09:01.900Z,93957.31
2022-08-28T07:11:31.456Z,93960.47
2022-08-28T07:13:59.223Z,93955.28
2022-08-28T07:16:31.868Z,93961.13
2022-08-28T07:18:59.674Z,93960.75
2022-08-28T07:21:27.094Z,93959.94
2022-08-28T07:23:55.004Z,93967.81
2022-08-28T07:26:24.007Z,93973.91
2022-08-28T07:28:51.543Z,93973.16
2022-08-28T07:31:26.136Z,93975.75
2022-08-28T07:33:54.862Z,93981.00
2022-08-28T07:36:29.873Z,93973.09
2022-08-28T07:38:58.262Z,93980.44
2022-08-28T07:41:27.858Z,93982.03
2022-08-28T07:44:13.525Z,93981.50
2022-08-28T07:46:40.907Z,93984.34
2022-08-28T07:49:08.918Z,93983.28
2022-08-28T07:51:36.038Z,93986.59
2022-08-28T07:54:04.069Z,93990.81
2022-08-28T07:56:31.457Z,93984.22
2022-08-28T07:58:59.625Z,93987.13
2022-08-28T08:01:28.788Z,93984.44
2022-08-28T08:04:01.279Z,93972.91
2022-08-28T08:06:34.022Z,93992.56
2022-08-28T08:09:05.153Z,93983.41
2022-08-28T08:11:32.770Z,93987.84
2022-08-28T08:14:04.656Z,93979.09
2022-08-28T08:16:35.677Z,93978.81
2022-08-28T08:19:04.151Z,93990.09
2022-08-28T08:21:31.715Z,93990.25
2022-08-28T08:23:59.254Z,93994.75
2022-08-28T08:26:28.277Z,93991.09
2022-08-28T08:28:56.267Z,93993.78
2022-08-28T08:31:26.874Z,93994.94
2022-08-28T08:33:56.493Z,93986.56
2022-08-28T08:36:25.536Z,94002.41
2022-08-28T08:38:59.254Z,93992.97
2022-08-28T08:41:33.423Z,93999.75
2022-08-28T08:44:33.548Z,93996.59
2022-08-28T08:47:22.462Z,94004.28
2022-08-28T08:49:57.570Z,94004.91
2022-08-28T08:52:30.296Z,94006.25
2022-08-28T08:55:06.408Z,93997.81
2022-08-28T08:57:35.420Z,94001.50
2022-08-28T09:00:12.303Z,94000.44
2022-08-28T09:02:49.473Z,94004.03
2022-08-28T09:05:20.269Z,94009.22
2022-08-28T09:07:58.409Z,94006.06
2022-08-28T09:10:35.821Z,94008.13
2022-08-28T09:13:17.621Z,94012.56
2022-08-28T09:15:50.620Z,94006.50
2022-08-28T09:18:26.019Z,94014.41
2022-08-28T09:20:58.349Z,94001.78
2022-08-28T09:23:27.225Z,94008.13
2022-08-28T09:26:02.107Z,94011.53
2022-08-28T09:28:37.650Z,94013.88
2022-08-28T09:31:19.069Z,94016.50
2022-08-28T09:33:52.042Z,94020.47
2022-08-28T09:36:23.561Z,94017.97
2022-08-28T09:39:14.730Z,94015.91
2022-08-28T09:42:26.177Z,94021.38
2022-08-28T09:45:16.400Z,94025.38
2022-08-28T09:47:54.614Z,94034.63
2022-08-28T09:50:37.479Z,94030.72
2022-08-28T09:53:10.223Z,94029.06
2022-08-28T09:55:41.788Z,94028.47
2022-08-28T09:58:09.114Z,94031.94
2022-08-28T10:00:39.088Z,94034.31
2022-08-28T10:03:16.248Z,94038.34
2022-08-28T10:06:09.187Z,94036.38
2022-08-28T10:08:55.012Z,94043.53
2022-08-28T10:11:34.718Z,94038.53
2022-08-28T10:14:08.699Z,94039.59
2022-08-28T10:16:51.508Z,94043.09
2022-08-28T10:20:02.830Z,94041.78
2022-08-28T10:22:42.590Z,94046.34
2022-08-28T10:25:09.600Z,94043.41
2022-08-28T10:27:56.729Z,94044.91
2022-08-28T10:30:25.011Z,94041.97
2022-08-28T10:33:10.309Z,94033.78
2022-08-28T10:35:53.332Z,94040.19
2022-08-28T10:38:27.849Z,94038.41
2022-08-28T10:41:11.154Z,94040.34
2022-08-28T10:43:43.688Z,94040.19
2022-08-28T10:46:27.154Z,94037.44
2022-08-28T10:48:58.490Z,94048.88
2022-08-28T10:51:35.220Z,94053.09
2022-08-28T10:54:13.720Z,94040.03
2022-08-28T10:56:44.539Z,94051.13
2022-08-28T10:59:12.206Z,94042.53
2022-08-28T11:01:42.801Z,94030.13
2022-08-28T11:04:25.416Z,94033.38
2022-08-28T11:06:58.575Z,94039.50
2022-08-28T11:09:37.750Z,94042.03
2022-08-28T11:12:10.246Z,94043.59
2022-08-28T11:14:47.718Z,94041.41
2022-08-28T11:17:30.615Z,94038.38
2022-08-28T11:20:14.016Z,94045.03
2022-08-28T11:22:43.721Z,94038.59
2022-08-28T11:25:12.940Z,94035.06
2022-08-28T11:27:40.616Z,94035.75
2022-08-28T11:30:11.157Z,94036.06
2022-08-28T11:32:56.588Z,94040.47
2022-08-28T11:35:49.116Z,94045.59
2022-08-28T11:38:41.507Z,94047.50
2022-08-28T11:41:25.857Z,94037.69
2022-08-28T11:44:41.632Z,94038.53
2022-08-28T11:47:44.908Z,94040.03
2022-08-28T11:50:32.168Z,94041.91
2022-08-28T11:53:14.223Z,94033.50
2022-08-28T11:56:00.030Z,94045.75
2022-08-28T11:58:35.781Z,94047.09
2022-08-28T12:01:07.548Z,94047.25
2022-08-28T12:03:38.300Z,94038.47
2022-08-28T12:06:06.320Z,94040.84
2022-08-28T12:08:46.104Z,94041.19
2022-08-28T12:11:40.785Z,94044.69
2022-08-28T12:14:11.316Z,94038.38
2022-08-28T12:17:00.085Z,94032.25
2022-08-28T12:19:28.912Z,94038.75
2022-08-28T12:21:56.431Z,94034.31
2022-08-28T12:24:24.274Z,94037.59
2022-08-28T12:26:54.674Z,94034.16
2022-08-28T12:29:32.947Z,94025.94
2022-08-28T12:32:31.167Z,94042.75
2022-08-28T12:34:58.037Z,94034.16
2022-08-28T12:37:50.869Z,94035.06
2022-08-28T12:40:25.661Z,94026.16
2022-08-28T12:42:56.139Z,94026.31
2022-08-28T12:45:35.045Z,94026.00
2022-08-28T12:48:15.576Z,94032.38
2022-08-28T12:50:42.263Z,94035.00
2022-08-28T12:53:16.432Z,94039.88
2022-08-28T12:55:45.558Z,94028.41
2022-08-28T12:58:34.036Z,94023.41
2022-08-28T13:01:14.301Z,94030.69
2022-08-28T13:03:49.977Z,94020.81
2022-08-28T13:06:36.779Z,94018.47
2022-08-28T13:09:07.382Z,94032.19
2022-08-28T13:11:38.831Z,94027.75
2022-08-28T13:14:06.038Z,94029.28
2022-08-28T13:16:42.658Z,94027.41
2022-08-28T13:19:29.129Z,94018.75
2022-08-28T13:22:32.232Z,94012.69
2022-08-28T13:25:00.928Z,94015.34
2022-08-28T13:27:28.307Z,94002.13
2022-08-28T13:30:26.106Z,94008.19
2022-08-28T13:33:23.695Z,94007.56
2022-08-28T13:35:51.565Z,94008.66
2022-08-28T13:38:20.768Z,94010.91
2022-08-28T13:40:58.081Z,94003.66
2022-08-28T13:43:28.191Z,94007.63
2022-08-28T13:45:55.199Z,94006.13
2022-08-28T13:48:26.515Z,94012.97
2022-08-28T13:51:04.835Z,94013.84
2022-08-28T13:53:31.970Z,94000.78
2022-08-28T13:56:00.318Z,94013.84
2022-08-28T13:58:28.332Z,94008.78
2022-08-28T14:00:55.401Z,94012.91
2022-08-28T14:03:41.317Z,94019.88
2022-08-28T14:06:16.981Z,94012.97
2022-08-28T14:08:44.923Z,94007.97
2022-08-28T14:11:13.231Z,94008.91
2022-08-28T14:13:46.711Z,94008.03
2022-08-28T14:16:23.323Z,94000.56
2022-08-28T14:18:52.765Z,94005.19
2022-08-28T14:21:20.003Z,94016.91
2022-08-28T14:23:46.709Z,94019.22
2022-08-28T14:26:13.459Z,94016.28
2022-08-28T14:28:40.121Z,94022.19
2022-08-28T14:31:11.045Z,94012.31
2022-08-28T14:33:41.717Z,94025.00
2022-08-28T14:36:18.699Z,94025.47
2022-08-28T14:38:45.448Z,94021.72
2022-08-28T14:41:12.549Z,94026.56
2022-08-28T14:43:39.409Z,94031.09
2022-08-28T14:46:09.680Z,94034.22
2022-08-28T14:48:38.291Z,94031.13
2022-08-28T14:51:05.170Z,94035.94
2022-08-28T14:53:31.919Z,94036.34
2022-08-28T14:55:58.559Z,94028.97
2022-08-28T14:58:25.619Z,94031.84
2022-08-28T15:00:52.998Z,94025.28
2022-08-28T15:03:20.477Z,94027.91
2022-08-28T15:05:47.813Z,94031.97
2022-08-28T15:08:16.354Z,94044.88
2022-08-28T15:10:44.149Z,94044.09
2022-08-28T15:13:11.588Z,94046.19
2022-08-28T15:15:39.657Z,94046.63
2022-08-28T15:18:07.262Z,94051.59
2022-08-28T15:20:45.021Z,94059.50
2022-08-28T15:23:13.456Z,94055.22
2022-08-28T15:25:40.571Z,94050.44
2022-08-28T15:28:07.451Z,94050.66
2022-08-28T15:30:34.619Z,94049.25
2022-08-28T15:33:01.730Z,94040.81
2022-08-28T15:35:28.648Z,94042.84
2022-08-28T15:37:55.437Z,94052.22
2022-08-28T15:40:40.782Z,94044.63
2022-08-28T15:43:07.692Z,94050.91
2022-08-28T15:45:39.319Z,94044.69
2022-08-28T15:48:06.439Z,94052.22
2022-08-28T15:50:33.224Z,94051.41
2022-08-28T15:53:00.030Z,94059.41
2022-08-28T15:55:27.450Z,94045.91
2022-08-28T15:57:55.208Z,94050.09
2022-08-28T16:00:22.097Z,94052.22
2022-08-28T16:02:49.019Z,94053.56
2022-08-28T16:05:16.052Z,94062.16
2022-08-28T16:07:42.829Z,94055.16
2022-08-28T16:10:10.170Z,94064.13
2022-08-28T16:12:40.249Z,94059.13
2022-08-28T16:15:08.399Z,94060.47
2022-08-28T16:17:35.140Z,94064.44
2022-08-28T16:20:03.651Z,94065.00
2022-08-28T16:22:30.377Z,94067.13
2022-08-28T16:24:57.499Z,94062.97
2022-08-28T16:27:24.228Z,94064.22
2022-08-28T16:29:52.786Z,94066.03
2022-08-28T16:32:20.009Z,94061.59
2022-08-28T16:34:46.825Z,94067.66
2022-08-28T16:37:14.359Z,94077.19
2022-08-28T16:39:46.363Z,94069.50
2022-08-28T16:42:13.004Z,94073.69
2022-08-28T16:44:39.949Z,94079.75
2022-08-28T16:47:07.063Z,94069.22
2022-08-28T16:49:33.869Z,94075.59
2022-08-28T16:52:00.595Z,94078.69
2022-08-28T16:54:27.296Z,94082.97
2022-08-28T16:56:54.040Z,94087.19
2022-08-28T16:59:21.152Z,94089.84
2022-08-28T17:01:52.818Z,94088.28
2022-08-28T17:04:20.629Z,94097.97
2022-08-28T17:06:47.549Z,94101.88
2022-08-28T17:09:14.460Z,94101.34
2022-08-28T17:11:41.162Z,94106.06
2022-08-28T17:14:09.200Z,94109.50
2022-08-28T17:16:35.925Z,94113.19
2022-08-28T17:19:02.774Z,94112.94
2022-08-28T17:21:48.296Z,94108.97
2022-08-28T17:24:15.101Z,94106.06
2022-08-28T17:26:42.680Z,94120.88
2022-08-28T17:29:09.753Z,94121.91
2022-08-28T17:31:36.934Z,94123.53
2022-08-28T17:34:05.747Z,94118.81
2022-08-28T17:36:34.344Z,94126.13
2022-08-28T17:39:03.733Z,94124.59
2022-08-28T17:41:30.467Z,94123.81
2022-08-28T17:43:57.287Z,94131.44
2022-08-28T17:46:24.095Z,94139.31
2022-08-28T17:48:56.193Z,94128.81
2022-08-28T17:51:41.902Z,94137.50
2022-08-28T17:54:18.529Z,94129.06
2022-08-28T17:56:46.517Z,94139.31
2022-08-28T17:59:14.044Z,94136.69
2022-08-28T18:01:44.607Z,94136.69
2022-08-28T18:04:12.318Z,94135.66
2022-08-28T18:06:39.561Z,94138.03
2022-08-28T18:09:08.210Z,94147.78
2022-08-28T18:11:34.986Z,94158.81
2022-08-28T18:14:02.409Z,94153.31
2022-08-28T18:16:32.138Z,94149.59
2022-08-28T18:19:00.354Z,94153.81
2022-08-28T18:21:27.488Z,94147.50
2022-08-28T18:23:54.247Z,94159.88
2022-08-28T18:26:21.119Z,94150.94
2022-08-28T18:28:48.011Z,94156.47
2022-08-28T18:31:15.195Z,94162.00
2022-08-28T18:33:41.907Z,94163.03
2022-08-28T18:36:10.562Z,94177.22
2022-08-28T18:38:37.378Z,94177.22
2022-08-28T18:41:05.680Z,94184.59
2022-08-28T18:43:33.384Z,94179.31
2022-08-28T18:46:01.978Z,94193.00
2022-08-28T18:48:29.035Z,94189.84
2022-08-28T18:50:55.865Z,94199.31
2022-08-28T18:53:23.624Z,94193.53
2022-08-28T18:55:52.765Z,94198.25
2022-08-28T18:58:21.176Z,94202.94
2022-08-28T19:00:48.574Z,94200.34
2022-08-28T19:03:15.759Z,94202.66
2022-08-28T19:05:42.507Z,94197.16
2022-08-28T19:08:09.419Z,94191.63
2022-08-28T19:10:37.977Z,94200.31
2022-08-28T19:13:06.519Z,94202.94
2022-08-28T19:15:34.733Z,94199.28
2022-08-28T19:18:02.088Z,94199.00
2022-08-28T19:20:29.888Z,94201.88
2022-08-28T19:22:58.010Z,94207.66
2022-08-28T19:25:28.295Z,94202.41
2022-08-28T19:28:00.194Z,94208.44
2022-08-28T19:30:31.413Z,94215.56
2022-08-28T19:32:58.423Z,94215.00
2022-08-28T19:35:25.928Z,94220.50
2022-08-28T19:37:53.797Z,94217.59
2022-08-28T19:40:21.038Z,94219.69
2022-08-28T19:42:50.051Z,94231.25
2022-08-28T19:45:18.045Z,94225.47
2022-08-28T19:47:45.698Z,94229.44
2022-08-28T19:50:14.760Z,94228.13
2022-08-28T19:52:43.633Z,94232.25
2022-08-28T19:55:23.693Z,94233.25
2022-08-28T19:57:50.631Z,94237.47
2022-08-28T20:00:19.262Z,94234.34
2022-08-28T20:02:48.287Z,94229.63
2022-08-28T20:05:15.533Z,94242.22
2022-08-28T20:07:42.497Z,94235.94
2022-08-28T20:10:10.442Z,94233.00
2022-08-28T20:12:38.689Z,94237.19
2022-08-28T20:15:09.314Z,94239.31
2022-08-28T20:17:43.944Z,94239.25
2022-08-28T20:20:17.959Z,94241.88
2022-08-28T20:22:44.746Z,94245.78
2022-08-28T20:25:11.901Z,94256.59
2022-08-28T20:27:41.477Z,94246.63
2022-08-28T20:30:11.106Z,94245.09
2022-08-28T20:32:40.373Z,94240.63
2022-08-28T20:35:09.623Z,94242.22
2022-08-28T20:37:44.731Z,94236.47
2022-08-28T20:40:16.039Z,94229.06
2022-08-28T20:42:42.987Z,94231.69
2022-08-28T20:45:10.729Z,94227.19
2022-08-28T20:47:37.429Z,94226.38
2022-08-28T20:50:05.107Z,94229.53
2022-08-28T20:52:31.758Z,94233.66
2022-08-28T20:54:58.514Z,94243.06
2022-08-28T20:57:25.691Z,94242.50
2022-08-28T20:59:54.136Z,94249.66
2022-08-28T21:02:24.280Z,94241.53
2022-08-28T21:04:52.035Z,94240.25
2022-08-28T21:07:20.538Z,94239.47
2022-08-28T21:10:04.919Z,94240.59
2022-08-28T21:12:35.721Z,94240.84
2022-08-28T21:15:02.655Z,94242.41
2022-08-28T21:17:30.712Z,94252.09
2022-08-28T21:20:02.891Z,94251.56
2022-08-28T21:22:31.554Z,94254.72
2022-08-28T21:24:58.779Z,94261.03
2022-08-28T21:27:25.405Z,94262.09
2022-08-28T21:29:55.237Z,94263.66
2022-08-28T21:32:21.856Z,94268.06
2022-08-28T21:34:48.499Z,94273.63
2022-08-28T21:37:15.623Z,94274.69
2022-08-28T21:39:42.308Z,94279.41
2022-08-28T21:42:10.392Z,94291.00
2022-08-28T21:44:38.221Z,94284.19
2022-08-28T21:47:05.211Z,94281.56
2022-08-28T21:49:31.855Z,94274.72
2022-08-28T21:52:01.299Z,94284.19
2022-08-28T21:54:28.043Z,94293.66
2022-08-28T21:56:58.744Z,94274.47
2022-08-28T21:59:25.777Z,94288.94
2022-08-28T22:01:58.381Z,94287.09
2022-08-28T22:04:25.298Z,94292.56
2022-08-28T22:06:51.987Z,94285.72
2022-08-28T22:09:18.643Z,94293.31
2022-08-28T22:11:45.267Z,94296.97
2022-08-28T22:14:11.873Z,94291.97
2022-08-28T22:16:38.571Z,94289.88
2022-08-28T22:19:05.197Z,94298.31
2022-08-28T22:21:50.273Z,94300.19
2022-08-28T22:24:16.977Z,94300.66
2022-08-28T22:26:43.927Z,94302.47
2022-08-28T22:29:11.089Z,94308.25
2022-08-28T22:31:39.666Z,94309.84
2022-08-28T22:34:12.670Z,94306.47
2022-08-28T22:36:39.938Z,94309.84
2022-08-28T22:39:06.650Z,94310.16
2022-08-28T22:41:33.338Z,94311.22
2022-08-28T22:44:00.306Z,94319.09
2022-08-28T22:46:27.918Z,94298.91
2022-08-28T22:48:54.779Z,94308.34
2022-08-28T22:51:21.484Z,94302.06
2022-08-28T22:53:55.805Z,94307.56
2022-08-28T22:56:22.467Z,94300.19
2022-08-28T22:58:49.098Z,94303.34
2022-08-28T23:01:18.700Z,94304.16
2022-08-28T23:03:46.087Z,94308.88
2022-08-28T23:06:13.857Z,94307.56
2022-08-28T23:08:40.730Z,94304.16
2022-08-28T23:11:07.442Z,94307.31
2022-08-28T23:13:34.409Z,94305.19
2022-08-28T23:16:01.619Z,94293.88
2022-08-28T23:18:28.818Z,94312.03
2022-08-28T23:20:56.086Z,94299.97
2022-08-28T23:23:23.558Z,94297.63
2022-08-28T23:25:50.669Z,94291.31
2022-08-28T23:28:18.258Z,94292.06
2022-08-28T23:30:48.529Z,94285.75
2022-08-28T23:33:23.834Z,94288.09
2022-08-28T23:35:51.045Z,94288.91
2022-08-28T23:38:17.809Z,94285.69
2022-08-28T23:40:44.686Z,94287.25
2022-08-28T23:43:11.875Z,94292.66
2022-08-28T23:45:40.144Z,94286.16
2022-08-28T23:48:07.022Z,94284.31
2022-08-28T23:50:33.968Z,94282.50
2022-08-28T23:53:01.855Z,94277.25
2022-08-28T23:55:29.070Z,94277.00
2022-08-28T23:57:55.890Z,94279.88
